Haleburg, Alabama
Current Conditions -  °F | °C
As of 10:35 AM on Saturday 22 Nov 2014 (Local Time) from KBIJ Reporting Station
Broken Clouds Broken Clouds  
Wind Chill: 68°   Ceiling: 5000
Heat Index: 68°   Visibility: 10mi
Dew Point: 50°   Wind: 8mph
Humidity: 52%   Direction: 80°E
Pressure: 30.35"   Gusts: NA
Location:  31.367°N, 85.1491°W
Report Text: KBIJ 221635Z AUTO 08007KT 050V130 10SM SCT044 BKN050 BKN070 20/10 A3035 RMK AO2
Loading
Personal Weather Stations






























Interactive Weather Map New forecast layout! Learn more

10-Day Weather Forecast

Advertisements
Track Severe Weather on mobile